createdAt,value
2019-04-20T00:01:22.878Z,22.50
2019-04-20T00:06:21.954Z,22.50
2019-04-20T00:11:34.924Z,22.50
2019-04-20T00:16:31.710Z,22.51
2019-04-20T00:21:56.365Z,22.51
2019-04-20T00:32:11.468Z,22.51
2019-04-20T00:37:05.155Z,22.52
2019-04-20T00:42:12.644Z,22.52
2019-04-20T00:47:31.773Z,22.53
2019-04-20T00:52:37.511Z,22.53
2019-04-20T00:57:36.865Z,22.53
2019-04-20T01:02:45.506Z,22.52
2019-04-20T01:08:00.175Z,22.53
2019-04-20T01:13:08.719Z,22.48
2019-04-20T01:18:10.638Z,22.48
2019-04-20T01:23:17.239Z,22.41
2019-04-20T01:28:35.854Z,22.41
2019-04-20T01:33:36.509Z,22.37
2019-04-20T01:38:45.119Z,22.35
2019-04-20T01:43:35.385Z,22.34
2019-04-20T01:48:41.334Z,22.32
2019-04-20T01:54:09.151Z,22.30
2019-04-20T01:59:26.661Z,22.29
2019-04-20T02:04:37.577Z,22.27
2019-04-20T02:09:48.352Z,22.26
2019-04-20T02:14:50.496Z,22.21
2019-04-20T02:20:10.419Z,22.21
2019-04-20T02:24:57.068Z,22.15
2019-04-20T02:30:29.940Z,22.15
2019-04-20T02:35:53.962Z,22.14
2019-04-20T02:40:56.812Z,22.14
2019-04-20T02:46:15.513Z,22.17
2019-04-20T02:51:10.528Z,22.24
2019-04-20T02:56:12.969Z,22.24
2019-04-20T03:01:30.934Z,22.23
2019-04-20T03:06:30.692Z,22.21
2019-04-20T03:11:52.938Z,22.18
2019-04-20T03:16:45.493Z,22.16
2019-04-20T03:22:00.404Z,22.13
2019-04-20T03:26:59.872Z,22.13
2019-04-20T03:32:50.177Z,22.07
2019-04-20T03:37:38.074Z,22.05
2019-04-20T03:42:16.043Z,22.02
2019-04-20T03:47:31.569Z,22.02
2019-04-20T03:52:58.308Z,21.94
2019-04-20T03:58:31.743Z,21.94
2019-04-20T04:08:39.006Z,21.68
2019-04-20T04:13:37.766Z,21.67
2019-04-20T04:18:47.211Z,21.63
2019-04-20T04:24:02.468Z,21.60
2019-04-20T04:29:12.683Z,21.60
2019-04-20T04:34:17.401Z,21.58
2019-04-20T04:39:29.366Z,21.55
2019-04-20T04:44:23.838Z,21.54
2019-04-20T04:49:24.920Z,21.53
2019-04-20T04:54:30.543Z,21.49
2019-04-20T04:59:27.538Z,21.47
2019-04-20T05:05:19.347Z,21.47
2019-04-20T05:09:59.188Z,21.46
2019-04-20T05:15:10.158Z,21.46
2019-04-20T05:20:29.044Z,21.46
2019-04-20T05:26:04.052Z,21.46
2019-04-20T05:30:46.915Z,21.45
2019-04-20T05:36:28.144Z,21.45
2019-04-20T05:41:32.709Z,21.44
2019-04-20T05:46:37.466Z,21.44
2019-04-20T05:51:43.262Z,21.47
2019-04-20T05:56:52.421Z,21.45
2019-04-20T06:01:57.659Z,21.45
2019-04-20T06:06:59.635Z,21.45
2019-04-20T06:12:18.008Z,21.47
2019-04-20T06:17:31.368Z,21.48
2019-04-20T06:22:48.332Z,21.49
2019-04-20T06:27:52.796Z,21.50
2019-04-20T06:33:38.799Z,21.53
2019-04-20T06:43:46.030Z,21.48
2019-04-20T06:48:52.343Z,21.56
2019-04-20T06:53:52.611Z,21.56
2019-04-20T06:59:12.558Z,17.85
2019-04-20T07:04:33.470Z,17.55
2019-04-20T07:09:26.255Z,18.52
2019-04-20T07:14:11.121Z,18.52
2019-04-20T07:19:36.535Z,20.42
2019-04-20T07:24:55.125Z,20.61
2019-04-20T07:29:57.096Z,20.80
2019-04-20T07:34:56.858Z,20.81
2019-04-20T07:40:07.510Z,20.81
2019-04-20T07:45:16.847Z,20.75
2019-04-20T07:50:09.132Z,20.91
2019-04-20T07:55:33.154Z,20.91
2019-04-20T08:00:38.547Z,21.06
2019-04-20T08:05:30.565Z,21.06
2019-04-20T08:10:39.446Z,21.06
2019-04-20T08:16:07.328Z,21.13
2019-04-20T08:20:59.595Z,21.16
2019-04-20T08:25:52.305Z,21.16
2019-04-20T08:31:18.218Z,21.16
2019-04-20T08:36:33.249Z,21.20
2019-04-20T08:41:29.694Z,21.21
2019-04-20T08:46:57.115Z,21.22
2019-04-20T08:51:55.077Z,21.26
2019-04-20T08:56:42.754Z,21.28
2019-04-20T09:01:40.692Z,21.28
2019-04-20T09:06:57.207Z,21.29
2019-04-20T09:12:11.907Z,21.33
2019-04-20T09:17:08.072Z,21.31
2019-04-20T09:22:40.531Z,21.37
2019-04-20T09:27:43.564Z,21.34
2019-04-20T09:33:08.021Z,21.34
2019-04-20T09:38:11.794Z,21.36
2019-04-20T09:43:32.329Z,21.37
2019-04-20T09:48:42.636Z,21.43
2019-04-20T09:53:52.623Z,21.49
2019-04-20T09:59:09.854Z,21.45
2019-04-20T10:03:52.490Z,21.46
2019-04-20T10:09:00.075Z,21.52
2019-04-20T10:14:02.233Z,21.54
2019-04-20T10:19:08.728Z,21.57
2019-04-20T10:24:12.578Z,21.73
2019-04-20T10:29:17.439Z,21.58
2019-04-20T10:34:23.998Z,21.58
2019-04-20T10:39:28.769Z,21.65
2019-04-20T10:44:32.774Z,21.62
2019-04-20T10:49:37.365Z,21.65
2019-04-20T10:54:42.652Z,21.65
2019-04-20T10:59:47.734Z,21.69
2019-04-20T11:04:52.644Z,21.75
2019-04-20T11:10:10.667Z,21.76
2019-04-20T11:15:02.954Z,21.77
2019-04-20T11:20:07.494Z,21.80
2019-04-20T11:25:12.431Z,21.80
2019-04-20T11:30:16.681Z,21.84
2019-04-20T11:35:28.082Z,21.85
2019-04-20T11:40:26.754Z,21.91
2019-04-20T11:45:31.067Z,21.91
2019-04-20T11:50:35.681Z,21.95
2019-04-20T11:55:40.431Z,21.98
2019-04-20T12:00:58.642Z,22.10
2019-04-20T12:05:57.468Z,22.05
2019-04-20T12:11:03.139Z,22.12
2019-04-20T12:16:05.688Z,22.19
2019-04-20T12:21:10.595Z,22.25
2019-04-20T12:26:15.041Z,22.25
2019-04-20T12:31:22.793Z,22.22
2019-04-20T12:36:26.032Z,22.26
2019-04-20T12:41:37.830Z,22.27
2019-04-20T12:46:35.993Z,22.27
2019-04-20T12:51:47.536Z,22.34
2019-04-20T12:56:46.572Z,22.33
2019-04-20T13:01:51.384Z,22.39
2019-04-20T13:06:55.467Z,22.39
2019-04-20T13:12:11.974Z,22.44
2019-04-20T13:17:16.531Z,22.57
2019-04-20T13:22:21.135Z,22.56
2019-04-20T13:33:51.933Z,22.48
2019-04-20T13:38:56.385Z,22.42
2019-04-20T13:44:01.986Z,22.43
2019-04-20T13:49:07.038Z,22.33
2019-04-20T13:54:14.986Z,22.30
2019-04-20T13:59:48.129Z,22.30
2019-04-20T14:04:55.084Z,22.24
2019-04-20T14:09:59.497Z,22.24
2019-04-20T14:15:05.011Z,22.34
2019-04-20T14:20:13.206Z,22.34
2019-04-20T14:25:15.340Z,22.23
2019-04-20T14:30:19.373Z,22.24
2019-04-20T14:35:23.178Z,22.26
2019-04-20T14:40:28.245Z,22.26
2019-04-20T14:45:32.380Z,22.31
2019-04-20T14:50:36.189Z,22.33
2019-04-20T14:55:40.070Z,22.34
2019-04-20T15:00:58.991Z,22.34
2019-04-20T15:06:03.376Z,22.34
2019-04-20T15:11:07.638Z,22.37
2019-04-20T15:16:12.724Z,22.37
2019-04-20T15:21:17.622Z,22.39
2019-04-20T15:26:22.458Z,22.47
2019-04-20T15:31:26.468Z,22.50
2019-04-20T15:36:30.243Z,22.50
2019-04-20T15:41:35.719Z,22.50
2019-04-20T15:46:39.985Z,22.39
2019-04-20T15:51:46.041Z,22.52
2019-04-20T15:56:56.942Z,22.52
2019-04-20T16:02:00.145Z,22.64
2019-04-20T16:07:05.418Z,22.50
2019-04-20T16:12:10.925Z,22.43
2019-04-20T16:17:15.263Z,22.43
2019-04-20T16:22:21.684Z,22.41
2019-04-20T16:27:38.543Z,22.38
2019-04-20T16:32:42.741Z,22.44
2019-04-20T16:37:46.653Z,22.51
2019-04-20T16:42:50.514Z,22.52
2019-04-20T16:47:54.530Z,22.54
2019-04-20T16:52:59.095Z,22.54
2019-04-20T16:58:03.824Z,22.53
2019-04-20T17:03:09.090Z,22.51
2019-04-20T17:08:13.202Z,22.52
2019-04-20T17:13:30.414Z,22.52
2019-04-20T17:18:23.545Z,22.66
2019-04-20T17:23:27.709Z,22.66
2019-04-20T17:28:49.205Z,22.69
2019-04-20T17:34:04.735Z,22.56
2019-04-20T17:39:11.434Z,22.56
2019-04-20T17:44:29.078Z,22.48
2019-04-20T17:49:31.632Z,22.42
2019-04-20T17:54:31.731Z,22.50
2019-04-20T17:59:38.131Z,22.48
2019-04-20T18:05:14.232Z,22.47
2019-04-20T18:10:15.309Z,22.47
2019-04-20T18:15:21.056Z,22.47
2019-04-20T18:20:12.663Z,22.47
2019-04-20T18:25:38.484Z,22.45
2019-04-20T18:30:48.846Z,22.46
2019-04-20T18:35:47.574Z,22.47
2019-04-20T18:41:00.426Z,22.42
2019-04-20T18:46:12.437Z,22.41
2019-04-20T18:51:03.818Z,22.42
2019-04-20T18:56:08.167Z,22.35
2019-04-20T19:01:13.229Z,22.35
2019-04-20T19:06:18.060Z,22.42
2019-04-20T19:11:24.964Z,22.41
2019-04-20T19:16:49.716Z,22.41
2019-04-20T19:21:41.071Z,22.42
2019-04-20T19:26:50.752Z,22.43
2019-04-20T19:32:15.858Z,22.37
2019-04-20T19:37:06.336Z,22.46
2019-04-20T19:42:22.387Z,22.45
2019-04-20T19:47:28.458Z,22.45
2019-04-20T19:52:39.622Z,22.44
2019-04-20T19:57:37.325Z,22.44
2019-04-20T20:02:25.924Z,22.45
2019-04-20T20:07:38.034Z,22.43
2019-04-20T20:12:35.684Z,22.34
2019-04-20T20:18:01.937Z,22.44
2019-04-20T20:22:49.793Z,22.43
2019-04-20T20:27:57.421Z,22.41
2019-04-20T20:33:16.028Z,22.41
2019-04-20T20:38:13.338Z,22.44
2019-04-20T20:43:18.436Z,22.48
2019-04-20T20:48:30.022Z,22.48
2019-04-20T20:53:32.868Z,22.58
2019-04-20T20:58:37.465Z,22.53
2019-04-20T21:03:37.004Z,22.53
2019-04-20T21:08:44.875Z,22.54
2019-04-20T21:13:45.220Z,22.62
2019-04-20T21:18:59.869Z,22.63
2019-04-20T21:24:06.600Z,22.64
2019-04-20T21:29:03.861Z,22.59
2019-04-20T21:34:14.490Z,22.48
2019-04-20T21:39:22.318Z,22.48
2019-04-20T21:44:25.220Z,22.46
2019-04-20T21:49:38.741Z,22.46
2019-04-20T21:54:31.963Z,22.45
2019-04-20T21:59:43.261Z,22.62
2019-04-20T22:04:45.245Z,22.66
2019-04-20T22:09:53.104Z,22.67
2019-04-20T22:15:00.763Z,22.67
2019-04-20T22:20:11.972Z,22.72
2019-04-20T22:25:23.497Z,22.72
2019-04-20T22:30:12.259Z,22.69
2019-04-20T22:35:18.818Z,22.67
2019-04-20T22:40:28.047Z,22.69
2019-04-20T22:45:29.541Z,22.62
2019-04-20T22:50:46.239Z,22.71
2019-04-20T22:56:04.381Z,22.71
2019-04-20T23:00:53.713Z,22.71
2019-04-20T23:05:50.991Z,22.72
2019-04-20T23:10:55.631Z,22.72
2019-04-20T23:16:02.194Z,22.72
2019-04-20T23:21:08.049Z,22.58
2019-04-20T23:26:11.427Z,22.58
2019-04-20T23:31:20.137Z,22.59
2019-04-20T23:36:31.897Z,22.73
2019-04-20T23:41:28.003Z,22.74
2019-04-20T23:46:53.473Z,22.75
2019-04-20T23:52:21.403Z,22.75
2019-04-20T23:57:01.831Z,22.75
